createdAt,value
2022-11-27T00:02:40.563Z,4.60
2022-11-27T00:07:45.131Z,4.50
2022-11-27T00:12:50.666Z,4.70
2022-11-27T00:17:55.548Z,4.60
2022-11-27T00:23:01.459Z,4.50
2022-11-27T00:28:06.799Z,4.70
2022-11-27T00:33:12.885Z,4.70
2022-11-27T00:38:17.844Z,4.60
2022-11-27T00:43:22.884Z,4.60
2022-11-27T00:48:27.822Z,4.50
2022-11-27T00:53:33.595Z,4.50
2022-11-27T00:58:39.040Z,4.50
2022-11-27T01:03:43.946Z,4.50
2022-11-27T01:08:49.449Z,4.50
2022-11-27T01:13:57.029Z,4.50
2022-11-27T01:19:04.083Z,4.50
2022-11-27T01:24:11.467Z,4.60
2022-11-27T01:29:16.590Z,4.60
2022-11-27T01:34:21.611Z,4.60
2022-11-27T01:39:27.030Z,4.40
2022-11-27T01:44:38.638Z,4.40
2022-11-27T01:49:50.515Z,4.40
2022-11-27T01:55:04.807Z,4.30
2022-11-27T02:00:14.027Z,4.40
2022-11-27T02:05:23.032Z,4.50
2022-11-27T02:10:31.159Z,4.50
2022-11-27T02:15:45.444Z,4.40
2022-11-27T02:21:02.602Z,4.50
2022-11-27T02:26:38.848Z,4.40
2022-11-27T02:32:02.209Z,4.40
2022-11-27T02:37:16.925Z,4.30
2022-11-27T02:42:22.845Z,4.40
2022-11-27T02:47:30.260Z,4.20
2022-11-27T02:52:38.038Z,4.20
2022-11-27T02:57:44.984Z,4.30
2022-11-27T03:02:53.498Z,4.00
2022-11-27T03:08:02.653Z,3.80
2022-11-27T03:13:09.025Z,4.00
2022-11-27T03:18:17.458Z,4.20
2022-11-27T03:23:22.465Z,4.30
2022-11-27T03:28:30.282Z,4.10
2022-11-27T03:33:36.820Z,4.10
2022-11-27T03:38:43.430Z,4.00
2022-11-27T03:43:58.165Z,4.10
2022-11-27T03:49:24.587Z,4.20
2022-11-27T03:54:36.305Z,4.00
2022-11-27T03:59:44.260Z,4.00
2022-11-27T04:04:49.722Z,4.00
2022-11-27T04:09:54.877Z,4.10
2022-11-27T04:14:59.852Z,4.00
2022-11-27T04:20:05.596Z,4.10
2022-11-27T04:25:10.878Z,4.00
2022-11-27T04:30:16.135Z,4.00
2022-11-27T04:35:21.486Z,4.10
2022-11-27T04:40:26.869Z,4.00
2022-11-27T04:45:32.986Z,4.10
2022-11-27T04:50:38.500Z,4.10
2022-11-27T04:55:43.869Z,3.70
2022-11-27T05:00:49.272Z,3.70
2022-11-27T05:05:58.522Z,3.70
2022-11-27T05:11:07.285Z,3.30
2022-11-27T05:16:12.863Z,3.00
2022-11-27T05:21:18.794Z,3.00
2022-11-27T05:26:24.474Z,3.20
2022-11-27T05:31:30.214Z,3.20
2022-11-27T05:36:35.963Z,3.20
2022-11-27T05:41:43.569Z,3.20
2022-11-27T05:46:48.754Z,3.10
2022-11-27T05:51:54.056Z,2.80
2022-11-27T05:56:59.366Z,3.00
2022-11-27T06:02:04.920Z,2.80
2022-11-27T06:07:10.108Z,2.70
2022-11-27T06:12:15.485Z,2.50
2022-11-27T06:17:20.620Z,2.20
2022-11-27T06:22:25.751Z,2.10
2022-11-27T06:27:34.520Z,2.20
2022-11-27T06:32:42.243Z,1.60
2022-11-27T06:37:48.456Z,1.50
2022-11-27T06:42:53.521Z,1.70
2022-11-27T06:48:00.007Z,1.60
2022-11-27T06:53:05.048Z,1.80
2022-11-27T06:58:11.876Z,2.00
2022-11-27T07:03:17.127Z,2.00
2022-11-27T07:08:22.979Z,2.20
2022-11-27T07:13:28.429Z,2.20
2022-11-27T07:18:40.025Z,2.20
2022-11-27T07:23:45.849Z,2.40
2022-11-27T07:28:51.931Z,2.50
2022-11-27T07:33:58.432Z,2.70
2022-11-27T07:39:04.345Z,2.80
2022-11-27T07:44:11.764Z,2.60
2022-11-27T07:49:17.234Z,2.60
2022-11-27T07:54:22.186Z,2.70
2022-11-27T07:59:28.389Z,2.80
2022-11-27T08:04:33.929Z,2.80
2022-11-27T08:09:40.062Z,2.90
2022-11-27T08:14:44.984Z,3.20
2022-11-27T08:19:50.694Z,3.50
2022-11-27T08:24:55.883Z,3.70
2022-11-27T08:30:02.182Z,3.80
2022-11-27T08:35:08.599Z,3.80
2022-11-27T08:40:13.677Z,3.80
2022-11-27T08:45:19.055Z,3.90
2022-11-27T08:50:24.581Z,4.00
2022-11-27T08:55:29.883Z,4.30
2022-11-27T09:00:36.100Z,4.50
2022-11-27T09:05:44.894Z,4.50
2022-11-27T09:10:50.136Z,4.70
2022-11-27T09:15:56.563Z,4.90
2022-11-27T09:21:05.614Z,5.20
2022-11-27T09:26:15.612Z,5.30
2022-11-27T09:31:22.002Z,5.30
2022-11-27T09:36:26.707Z,5.40
2022-11-27T09:41:43.939Z,5.70
2022-11-27T09:46:49.454Z,6.00
2022-11-27T09:52:06.880Z,6.20
2022-11-27T09:57:20.877Z,6.40
2022-11-27T10:02:34.630Z,6.60
2022-11-27T10:08:06.908Z,6.70
2022-11-27T10:13:29.412Z,6.90
2022-11-27T10:18:48.504Z,7.10
2022-11-27T10:24:02.490Z,7.10
2022-11-27T10:29:25.439Z,7.10
2022-11-27T10:34:42.623Z,7.30
2022-11-27T10:39:51.747Z,7.40
2022-11-27T10:45:06.268Z,7.40
2022-11-27T10:50:16.305Z,7.50
2022-11-27T10:55:24.317Z,7.40
2022-11-27T11:00:30.055Z,7.40
2022-11-27T11:05:57.414Z,7.60
2022-11-27T11:10:47.648Z,7.50
2022-11-27T11:15:55.876Z,7.40
2022-11-27T11:21:05.017Z,7.40
2022-11-27T11:26:16.434Z,7.40
2022-11-27T11:31:24.882Z,7.50
2022-11-27T11:36:31.407Z,7.60
2022-11-27T11:41:42.003Z,7.60
2022-11-27T11:46:54.281Z,7.70
2022-11-27T11:52:08.812Z,7.60
2022-11-27T11:57:33.098Z,7.00
2022-11-27T12:03:01.405Z,7.10
2022-11-27T12:08:25.980Z,7.10
2022-11-27T12:13:50.996Z,7.20
2022-11-27T12:19:19.903Z,7.40
2022-11-27T12:24:34.861Z,7.40
2022-11-27T12:30:05.696Z,7.20
2022-11-27T12:35:34.113Z,6.80
2022-11-27T12:40:49.161Z,6.70
2022-11-27T12:46:07.824Z,6.70
2022-11-27T12:51:18.762Z,6.70
2022-11-27T12:56:36.180Z,6.60
2022-11-27T13:01:48.627Z,6.60
2022-11-27T13:07:12.194Z,6.70
2022-11-27T13:12:26.304Z,6.50
2022-11-27T13:17:37.942Z,6.40
2022-11-27T13:22:46.413Z,6.50
2022-11-27T13:27:54.476Z,6.30
2022-11-27T13:33:05.948Z,6.10
2022-11-27T13:38:20.991Z,6.20
2022-11-27T13:43:44.188Z,6.20
2022-11-27T13:48:56.147Z,6.10
2022-11-27T13:54:13.139Z,5.70
2022-11-27T13:59:26.318Z,5.40
2022-11-27T14:04:33.067Z,5.40
2022-11-27T14:09:44.614Z,5.00
2022-11-27T14:15:11.422Z,5.00
2022-11-27T14:20:26.128Z,5.10
2022-11-27T14:25:39.618Z,4.90
2022-11-27T14:30:51.898Z,4.90
2022-11-27T14:36:02.866Z,4.70
2022-11-27T14:41:19.916Z,4.70
2022-11-27T14:46:25.902Z,4.50
2022-11-27T14:51:37.359Z,4.30
2022-11-27T14:56:44.649Z,4.20
2022-11-27T15:02:09.180Z,4.20
2022-11-27T15:07:23.688Z,4.10
2022-11-27T15:12:34.076Z,3.90
2022-11-27T15:17:41.176Z,3.80
2022-11-27T15:22:55.216Z,3.70
2022-11-27T15:28:01.117Z,3.60
2022-11-27T15:33:06.626Z,3.50
2022-11-27T15:38:14.032Z,3.40
2022-11-27T15:43:19.084Z,3.00
2022-11-27T15:48:24.750Z,3.00
2022-11-27T15:53:30.144Z,2.80
2022-11-27T15:58:35.744Z,2.20
2022-11-27T16:03:41.887Z,2.30
2022-11-27T16:08:47.223Z,2.50
2022-11-27T16:13:53.117Z,2.30
2022-11-27T16:19:01.066Z,2.40
2022-11-27T16:24:07.048Z,2.50
2022-11-27T16:29:13.417Z,2.40
2022-11-27T16:34:18.825Z,2.00
2022-11-27T16:39:26.845Z,2.20
2022-11-27T16:44:32.320Z,2.40
2022-11-27T16:49:39.171Z,2.30
2022-11-27T16:54:45.449Z,2.20
2022-11-27T16:59:51.991Z,1.70
2022-11-27T17:04:57.066Z,1.60
2022-11-27T17:10:03.678Z,1.30
2022-11-27T17:15:10.162Z,1.30
2022-11-27T17:20:15.165Z,1.30
2022-11-27T17:25:20.828Z,0.70
2022-11-27T17:30:26.482Z,1.10
2022-11-27T17:35:33.240Z,1.20
2022-11-27T17:40:39.450Z,1.30
2022-11-27T17:45:44.863Z,1.00
2022-11-27T17:50:50.904Z,1.10
2022-11-27T17:55:57.353Z,1.10
2022-11-27T18:01:02.659Z,0.90
2022-11-27T18:06:08.052Z,0.90
2022-11-27T18:11:15.860Z,0.70
2022-11-27T18:16:30.632Z,0.30
2022-11-27T18:21:39.370Z,0.60
2022-11-27T18:31:53.948Z,0.70
2022-11-27T18:37:00.883Z,0.50
2022-11-27T18:42:07.319Z,0.60
2022-11-27T18:47:14.188Z,0.50
2022-11-27T18:52:19.589Z,0.60
2022-11-27T18:57:25.271Z,0.60
2022-11-27T19:02:30.719Z,0.30
2022-11-27T19:07:36.910Z,0.00
2022-11-27T19:12:42.242Z,0.20
2022-11-27T19:17:47.728Z,0.20
2022-11-27T19:22:53.385Z,0.10
2022-11-27T19:28:00.663Z,0.00
2022-11-27T19:33:06.430Z,0.00
2022-11-27T19:38:11.398Z,-0.10
2022-11-27T19:43:16.742Z,0.00
2022-11-27T19:48:23.578Z,0.00
2022-11-27T19:53:29.874Z,0.00
2022-11-27T19:58:35.652Z,-0.30
2022-11-27T20:03:42.456Z,-0.30
2022-11-27T20:08:49.172Z,-0.40
2022-11-27T20:13:59.778Z,-0.40
2022-11-27T20:19:06.050Z,-0.50
2022-11-27T20:24:12.415Z,-0.40
2022-11-27T20:29:17.854Z,-0.40
2022-11-27T20:34:23.678Z,-0.20
2022-11-27T20:39:28.941Z,-0.60
2022-11-27T20:44:34.206Z,-0.30
2022-11-27T20:49:39.238Z,-0.40
2022-11-27T20:54:44.443Z,-0.30
2022-11-27T20:59:50.190Z,-0.30
2022-11-27T21:04:55.647Z,-0.60
2022-11-27T21:10:01.026Z,-0.60
2022-11-27T21:15:07.912Z,-0.80
2022-11-27T21:20:13.894Z,-0.70
2022-11-27T21:25:24.012Z,-0.70
2022-11-27T21:30:26.597Z,-0.90
2022-11-27T21:35:34.762Z,-0.60
2022-11-27T21:40:38.907Z,-1.10
2022-11-27T21:45:44.102Z,-0.90
2022-11-27T21:50:49.645Z,-1.50
2022-11-27T21:55:54.727Z,-1.20
2022-11-27T22:00:59.732Z,-0.90
2022-11-27T22:06:08.222Z,-0.90
2022-11-27T22:11:17.150Z,-0.90
2022-11-27T22:16:25.230Z,-1.10
2022-11-27T22:21:32.345Z,-1.00
2022-11-27T22:26:37.661Z,-1.00
2022-11-27T22:31:42.698Z,-0.80
2022-11-27T22:36:48.354Z,-0.90
2022-11-27T22:41:54.014Z,-1.00
2022-11-27T22:46:59.723Z,-1.10
2022-11-27T22:52:05.310Z,-1.20
2022-11-27T22:57:10.330Z,-1.20
2022-11-27T23:02:16.209Z,-1.10
2022-11-27T23:07:25.185Z,-0.90
2022-11-27T23:12:28.743Z,-1.10
2022-11-27T23:17:33.758Z,-1.40
2022-11-27T23:22:39.299Z,-0.80
2022-11-27T23:27:44.938Z,-1.40
2022-11-27T23:32:50.065Z,-1.30
2022-11-27T23:37:55.647Z,-1.40
2022-11-27T23:43:01.327Z,-1.10
2022-11-27T23:48:06.725Z,-1.20
2022-11-27T23:53:11.799Z,-1.20
2022-11-27T23:58:17.037Z,-1.40
